Time;durP1;ratioP1;P1;durP2;ratioP2;P2;SDS_P1;SDS_P2;PMS_P1;PMS_P2;Temp;Humidity;BMP_temperature;BMP_pressure;BME280_temperature;BME280_humidity;BME280_pressure;Samples;Min_cycle;Max_cycle;Signal;HPM_P1;HPM_P2
2021/12/01 00:01:29;;;;;;;17.20;12.13;;;2.70;1.00;;;;;;5035682;28;20069;-85
2021/12/01 00:03:54;;;;;;;16.80;11.98;;;2.70;1.00;;;;;;5036396;28;20021;-86
2021/12/01 00:06:20;;;;;;;18.60;12.18;;;2.70;1.00;;;;;;5034912;28;20465;-85
2021/12/01 00:08:46;;;;;;;18.52;12.20;;;2.70;1.00;;;;;;5035623;28;20048;-85
2021/12/01 00:11:11;;;;;;;15.82;11.75;;;2.60;1.00;;;;;;5033498;28;20040;-85
2021/12/01 00:13:37;;;;;;;16.85;12.15;;;2.60;1.00;;;;;;5033413;28;20488;-86
2021/12/01 00:16:03;;;;;;;18.42;12.15;;;2.50;1.00;;;;;;5036988;28;20030;-85
2021/12/01 00:18:29;;;;;;;17.83;11.73;;;2.60;1.00;;;;;;5035340;28;20026;-86
2021/12/01 00:20:56;;;;;;;16.80;11.77;;;2.50;1.00;;;;;;5035096;28;20057;-86
2021/12/01 00:23:22;;;;;;;18.02;12.93;;;2.50;1.00;;;;;;5034667;28;20021;-85
2021/12/01 00:25:48;;;;;;;18.25;12.25;;;2.40;1.00;;;;;;5031257;28;20478;-85
2021/12/01 00:28:13;;;;;;;16.00;11.85;;;2.40;1.00;;;;;;5036949;28;20045;-86
2021/12/01 00:30:40;;;;;;;17.80;12.85;;;2.50;1.00;;;;;;5035332;28;20030;-86
2021/12/01 00:33:09;;;;;;;16.23;11.80;;;2.50;1.00;;;;;;5033579;28;20037;-86
2021/12/01 00:35:34;;;;;;;20.05;13.02;;;2.40;1.00;;;;;;5034069;28;20021;-85
2021/12/01 00:38:00;;;;;;;17.40;12.18;;;2.30;1.00;;;;;;5031416;28;20075;-85
2021/12/01 00:40:26;;;;;;;19.98;12.88;;;3.00;1.00;;;;;;5035433;28;20466;-86
2021/12/01 00:42:52;;;;;;;19.00;14.73;;;2.40;1.00;;;;;;5033471;28;20040;-86
2021/12/01 00:45:20;;;;;;;18.55;13.15;;;2.20;1.00;;;;;;5034803;28;20030;-85
2021/12/01 00:47:50;;;;;;;19.40;13.00;;;2.20;1.00;;;;;;5034086;28;20934;-86
2021/12/01 00:50:22;;;;;;;17.30;12.57;;;2.30;1.00;;;;;;5032897;28;20032;-86
2021/12/01 00:52:49;;;;;;;16.30;12.48;;;2.30;1.00;;;;;;5031340;28;20551;-86
2021/12/01 00:55:14;;;;;;;18.25;12.57;;;2.30;1.00;;;;;;5036646;28;20164;-86
2021/12/01 00:57:40;;;;;;;18.65;12.68;;;2.20;1.00;;;;;;5034730;28;20108;-86
2021/12/01 01:00:08;;;;;;;20.08;13.85;;;2.20;1.00;;;;;;5034472;28;20413;-86
2021/12/01 01:02:34;;;;;;;19.05;14.25;;;2.20;1.00;;;;;;5035068;28;20044;-86
2021/12/01 01:05:00;;;;;;;20.95;13.98;;;2.20;1.00;;;;;;5030913;28;20037;-86
2021/12/01 01:07:26;;;;;;;18.95;12.93;;;2.20;1.00;;;;;;5035162;28;20095;-86
2021/12/01 01:09:51;;;;;;;20.38;13.55;;;2.10;1.00;;;;;;5033590;28;20028;-86
2021/12/01 01:18:02;;;;;;;20.63;13.70;;;2.10;1.00;;;;;;5034315;28;20041;-86
2021/12/01 01:20:27;;;;;;;20.35;13.70;;;2.10;1.00;;;;;;5034402;28;20021;-86
2021/12/01 01:22:53;;;;;;;19.08;13.75;;;2.00;1.00;;;;;;5030054;28;20030;-86
2021/12/01 01:25:19;;;;;;;18.50;13.48;;;2.00;1.00;;;;;;5036359;28;20375;-86
2021/12/01 01:27:44;;;;;;;20.17;13.60;;;2.00;1.00;;;;;;5032653;28;20057;-85
2021/12/01 01:30:10;;;;;;;19.15;13.90;;;2.40;1.00;;;;;;5033341;28;20040;-86
2021/12/01 01:32:36;;;;;;;21.17;14.98;;;2.00;1.00;;;;;;5033929;28;20021;-86
2021/12/01 01:35:02;;;;;;;19.17;13.23;;;2.00;1.00;;;;;;5030740;28;20033;-86
2021/12/01 01:37:27;;;;;;;18.85;13.30;;;2.00;1.00;;;;;;5034468;28;20030;-86
2021/12/01 01:39:54;;;;;;;17.95;12.85;;;2.00;1.00;;;;;;5034922;28;20025;-86
2021/12/01 01:42:19;;;;;;;21.50;13.88;;;2.00;1.00;;;;;;5034346;28;20030;-86
2021/12/01 01:44:45;;;;;;;17.52;12.45;;;2.00;1.00;;;;;;5034094;28;20110;-86
2021/12/01 01:47:11;;;;;;;19.20;13.15;;;2.00;1.00;;;;;;5031790;28;20033;-86
2021/12/01 01:49:49;;;;;;;19.08;12.85;;;2.00;1.00;;;;;;5035845;28;20033;-86
2021/12/01 01:52:15;;;;;;;17.00;12.43;;;2.00;1.00;;;;;;5039390;28;20067;-86
2021/12/01 01:54:40;;;;;;;16.85;12.10;;;2.00;1.00;;;;;;5037908;28;20033;-86
2021/12/01 01:57:06;;;;;;;17.85;12.40;;;2.00;1.00;;;;;;5037934;28;20516;-86
2021/12/01 01:59:32;;;;;;;18.02;12.68;;;1.90;1.00;;;;;;5037803;28;20028;-86
2021/12/01 02:01:58;;;;;;;18.70;12.93;;;2.00;1.00;;;;;;5033605;28;20469;-86
2021/12/01 02:04:26;;;;;;;17.48;12.90;;;1.90;1.00;;;;;;5039099;28;20033;-86
2021/12/01 02:06:51;;;;;;;18.80;12.90;;;2.00;1.00;;;;;;5038264;28;20084;-86
2021/12/01 02:09:22;;;;;;;18.10;12.45;;;2.10;1.00;;;;;;5038179;28;20489;-86
2021/12/01 02:11:53;;;;;;;16.25;11.80;;;2.00;1.00;;;;;;5037477;28;20166;-86
2021/12/01 02:14:18;;;;;;;20.40;12.52;;;2.00;1.00;;;;;;5036634;28;20036;-86
2021/12/01 02:16:44;;;;;;;18.00;12.57;;;2.10;1.00;;;;;;5034359;28;20038;-85
2021/12/01 02:19:10;;;;;;;17.42;12.80;;;2.00;1.00;;;;;;5039689;28;20034;-86
2021/12/01 02:21:36;;;;;;;15.38;11.25;;;2.00;1.00;;;;;;5037439;28;20375;-86
2021/12/01 02:24:06;;;;;;;17.10;12.23;;;2.10;1.00;;;;;;5037225;28;20036;-86
2021/12/01 02:26:34;;;;;;;17.27;11.82;;;1.90;1.00;;;;;;5037273;28;20037;-86
2021/12/01 02:29:03;;;;;;;15.07;11.63;;;1.90;1.00;;;;;;5032506;28;20022;-86
2021/12/01 02:31:33;;;;;;;19.98;12.30;;;2.00;1.00;;;;;;5037082;28;20043;-86
2021/12/01 02:34:00;;;;;;;17.85;12.13;;;1.80;1.00;;;;;;5038408;28;20474;-86
2021/12/01 02:36:26;;;;;;;15.82;11.30;;;1.80;1.00;;;;;;5036955;28;20026;-86
2021/12/01 02:38:52;;;;;;;14.88;10.52;;;2.30;1.00;;;;;;5037064;28;20112;-86
2021/12/01 02:41:28;;;;;;;14.23;10.15;;;1.90;1.00;;;;;;5035232;28;20520;-86
2021/12/01 02:43:55;;;;;;;14.20;10.27;;;1.90;1.00;;;;;;5017125;28;20482;-86
2021/12/01 02:46:21;;;;;;;13.25;9.85;;;1.90;1.00;;;;;;5039041;28;20382;-86
2021/12/01 02:48:47;;;;;;;14.48;10.30;;;1.80;1.00;;;;;;5037090;28;20033;-86
2021/12/01 02:51:13;;;;;;;13.77;9.80;;;1.80;1.00;;;;;;5037076;28;20033;-86
2021/12/01 02:53:40;;;;;;;14.82;9.95;;;1.80;1.00;;;;;;5036826;28;20488;-85
2021/12/01 02:56:08;;;;;;;14.52;10.23;;;1.80;1.00;;;;;;5033995;28;20025;-86
2021/12/01 02:58:42;;;;;;;13.18;9.80;;;1.80;1.00;;;;;;5035751;28;20120;-85
2021/12/01 03:01:14;;;;;;;16.92;11.43;;;1.70;1.00;;;;;;5036782;28;20148;-86
2021/12/01 03:03:40;;;;;;;16.80;11.25;;;1.60;1.00;;;;;;5036983;28;20033;-86
2021/12/01 03:06:07;;;;;;;16.33;11.15;;;1.60;1.00;;;;;;5036508;28;20096;-86
2021/12/01 03:08:35;;;;;;;15.32;11.13;;;1.40;1.00;;;;;;5035466;28;20029;-86
2021/12/01 03:11:00;;;;;;;18.08;12.40;;;1.40;1.00;;;;;;5032837;28;20020;-86
2021/12/01 03:13:26;;;;;;;16.30;11.93;;;1.30;1.00;;;;;;5036889;28;20464;-87
2021/12/01 03:15:53;;;;;;;15.80;11.30;;;1.10;1.00;;;;;;5037524;28;20028;-86
2021/12/01 03:18:19;;;;;;;17.63;12.27;;;1.10;1.00;;;;;;5036494;28;20037;-86
2021/12/01 03:20:46;;;;;;;18.58;12.90;;;1.10;1.00;;;;;;5036911;28;20083;-86
2021/12/01 03:23:12;;;;;;;16.15;11.15;;;1.10;1.00;;;;;;5034280;28;20112;-86
2021/12/01 03:25:38;;;;;;;17.25;12.30;;;1.00;1.00;;;;;;5033986;28;20033;-86
2021/12/01 03:28:07;;;;;;;16.92;11.93;;;1.10;1.00;;;;;;5037690;28;20528;-86
2021/12/01 03:30:34;;;;;;;15.23;11.23;;;1.00;1.00;;;;;;5036271;28;20033;-86
2021/12/01 03:33:21;;;;;;;15.88;11.15;;;1.00;1.00;;;;;;5036586;28;20033;-86
2021/12/01 03:35:49;;;;;;;16.02;11.48;;;1.10;1.00;;;;;;5036103;28;20092;-86
2021/12/01 03:38:16;;;;;;;17.65;11.07;;;1.10;1.00;;;;;;5034433;28;20037;-86
2021/12/01 03:40:42;;;;;;;17.30;12.13;;;1.10;1.00;;;;;;5031818;28;20026;-86
2021/12/01 03:43:08;;;;;;;15.43;11.25;;;1.10;1.00;;;;;;5037704;28;20033;-86
2021/12/01 03:45:34;;;;;;;20.15;11.88;;;1.10;1.00;;;;;;5035879;28;20355;-86
2021/12/01 03:47:59;;;;;;;17.83;11.75;;;1.60;1.00;;;;;;5034772;28;20041;-86
2021/12/01 03:50:25;;;;;;;16.05;11.77;;;1.20;1.00;;;;;;5035649;28;20025;-86
2021/12/01 03:52:51;;;;;;;16.48;11.68;;;1.20;1.00;;;;;;5031491;28;20075;-86
2021/12/01 03:55:17;;;;;;;20.17;12.90;;;1.20;1.00;;;;;;5037666;28;20021;-86
2021/12/01 03:57:43;;;;;;;18.25;12.73;;;1.20;1.00;;;;;;5035349;28;20132;-85
2021/12/01 04:00:11;;;;;;;16.48;11.25;;;1.10;1.00;;;;;;5035584;28;20028;-86
2021/12/01 04:02:37;;;;;;;18.63;12.65;;;1.10;1.00;;;;;;5035684;28;20036;-86
2021/12/01 04:05:04;;;;;;;17.60;11.57;;;1.10;1.00;;;;;;5032349;28;20018;-86
2021/12/01 04:07:30;;;;;;;15.10;11.52;;;1.10;1.00;;;;;;5035838;28;20037;-86
2021/12/01 04:09:55;;;;;;;13.63;10.32;;;1.10;1.00;;;;;;5036293;28;20143;-86
2021/12/01 04:12:21;;;;;;;14.90;10.50;;;1.40;1.00;;;;;;5034167;28;20040;-86
2021/12/01 04:14:47;;;;;;;13.85;9.52;;;1.20;1.00;;;;;;5035425;28;20553;-86
2021/12/01 04:17:12;;;;;;;15.88;9.73;;;1.20;1.00;;;;;;5033828;28;20112;-86
2021/12/01 04:19:38;;;;;;;14.85;9.50;;;1.20;1.00;;;;;;5033207;28;20021;-86
2021/12/01 04:22:04;;;;;;;12.82;9.00;;;1.20;1.00;;;;;;5037057;28;20398;-86
2021/12/01 04:24:30;;;;;;;12.05;8.50;;;1.20;1.00;;;;;;5035137;28;20030;-86
2021/12/01 04:26:57;;;;;;;10.88;7.50;;;1.70;1.00;;;;;;5033070;28;20049;-86
2021/12/01 04:29:23;;;;;;;10.73;7.95;;;1.30;1.00;;;;;;5034536;28;20021;-86
2021/12/01 04:31:50;;;;;;;14.35;8.35;;;1.30;1.00;;;;;;5031221;28;20493;-86
2021/12/01 04:34:16;;;;;;;12.65;8.45;;;1.30;1.00;;;;;;5037418;28;20441;-86
2021/12/01 04:36:43;;;;;;;12.65;9.25;;;1.20;1.00;;;;;;5034889;28;20025;-86
2021/12/01 04:39:13;;;;;;;12.60;9.15;;;1.20;1.00;;;;;;5035100;28;20033;-86
2021/12/01 04:41:41;;;;;;;15.52;10.52;;;1.20;1.00;;;;;;5034448;28;20025;-86
2021/12/01 04:44:11;;;;;;;15.00;10.15;;;1.20;1.00;;;;;;5032268;28;20042;-86
2021/12/01 04:46:48;;;;;;;15.10;10.52;;;1.00;1.00;;;;;;5032744;28;20033;-86
2021/12/01 04:49:20;;;;;;;14.75;10.57;;;1.20;1.00;;;;;;5036372;28;20105;-86
2021/12/01 04:51:49;;;;;;;14.73;10.27;;;1.10;1.00;;;;;;5034741;28;20076;-86
2021/12/01 04:54:15;;;;;;;14.10;10.63;;;1.10;1.00;;;;;;5034682;28;20041;-86
2021/12/01 04:56:43;;;;;;;19.10;11.85;;;1.10;1.00;;;;;;5034274;28;20086;-86
2021/12/01 04:59:09;;;;;;;16.55;11.98;;;1.00;1.00;;;;;;5032305;28;20449;-86
2021/12/01 05:01:36;;;;;;;16.10;10.73;;;0.90;1.00;;;;;;5033233;28;20032;-86
2021/12/01 05:04:03;;;;;;;17.98;11.02;;;0.90;1.00;;;;;;5036097;28;20030;-87
2021/12/01 05:06:29;;;;;;;15.43;10.60;;;0.90;1.00;;;;;;5033069;28;20084;-86
2021/12/01 05:08:54;;;;;;;13.57;10.15;;;0.90;1.00;;;;;;5034402;28;20037;-86
2021/12/01 05:11:20;;;;;;;15.15;10.35;;;0.80;1.00;;;;;;5033449;28;20024;-86
2021/12/01 05:13:46;;;;;;;15.85;10.25;;;0.70;1.00;;;;;;5030789;28;20128;-86
2021/12/01 05:16:12;;;;;;;15.32;10.20;;;0.70;1.00;;;;;;5036579;28;20025;-86
2021/12/01 05:18:37;;;;;;;15.43;9.88;;;0.80;1.00;;;;;;5034489;28;20383;-86
2021/12/01 05:21:03;;;;;;;15.88;9.77;;;0.80;1.00;;;;;;5034500;28;20506;-86
2021/12/01 05:23:29;;;;;;;13.82;9.55;;;0.80;1.00;;;;;;5032690;28;20029;-86
2021/12/01 05:25:55;;;;;;;14.02;10.20;;;0.80;1.00;;;;;;5029537;28;20030;-86
2021/12/01 05:28:20;;;;;;;16.02;9.90;;;0.80;1.00;;;;;;5036242;28;20048;-86
2021/12/01 05:30:46;;;;;;;15.15;10.30;;;0.80;1.00;;;;;;5034505;28;20448;-86
2021/12/01 05:33:14;;;;;;;13.20;9.75;;;0.80;1.00;;;;;;5034323;28;20080;-86
2021/12/01 05:35:42;;;;;;;13.73;9.25;;;0.90;1.00;;;;;;5034014;28;20029;-86
2021/12/01 05:38:08;;;;;;;13.68;9.30;;;0.90;1.00;;;;;;5031844;28;20028;-86
2021/12/01 05:40:34;;;;;;;13.35;8.98;;;0.90;1.00;;;;;;5032623;28;20029;-87
2021/12/01 05:43:00;;;;;;;12.10;8.98;;;1.00;1.00;;;;;;5035865;28;20025;-85
2021/12/01 05:45:26;;;;;;;13.90;8.63;;;1.00;1.00;;;;;;5032753;28;20037;-86
2021/12/01 05:47:51;;;;;;;11.27;8.50;;;1.00;1.00;;;;;;5033744;28;20041;-86
2021/12/01 05:50:17;;;;;;;11.55;8.52;;;1.00;1.00;;;;;;5032893;28;20032;-86
2021/12/01 05:52:43;;;;;;;12.20;8.73;;;1.00;1.00;;;;;;5031026;28;20046;-86
2021/12/01 05:55:09;;;;;;;11.27;8.77;;;1.10;1.00;;;;;;5035958;28;20026;-85
2021/12/01 05:57:36;;;;;;;12.82;8.90;;;1.20;1.00;;;;;;5033985;28;20034;-86
2021/12/01 06:00:05;;;;;;;11.10;8.52;;;1.30;1.00;;;;;;5033879;28;20034;-86
2021/12/01 06:02:30;;;;;;;11.88;8.25;;;1.30;1.00;;;;;;5033843;28;20025;-86
2021/12/01 06:04:56;;;;;;;12.65;7.93;;;1.40;1.00;;;;;;5029712;28;20018;-87
2021/12/01 06:07:22;;;;;;;13.25;8.20;;;1.50;1.00;;;;;;5035410;28;20045;-87
2021/12/01 06:09:47;;;;;;;13.30;8.38;;;1.50;1.00;;;;;;5033291;28;20037;-86
2021/12/01 06:12:13;;;;;;;12.20;8.10;;;1.50;1.00;;;;;;5033220;28;20037;-86
2021/12/01 06:14:44;;;;;;;9.98;7.35;;;1.60;1.00;;;;;;5033597;28;20021;-86
2021/12/01 06:17:10;;;;;;;11.07;7.13;;;1.70;1.00;;;;;;5031531;28;20030;-86
2021/12/01 06:19:40;;;;;;;9.50;7.10;;;1.80;1.00;;;;;;5031768;28;20072;-86
2021/12/01 06:22:06;;;;;;;9.63;6.80;;;1.80;1.00;;;;;;5033167;28;20030;-87
2021/12/01 06:24:32;;;;;;;9.55;6.88;;;1.90;1.00;;;;;;5032333;28;20112;-87
2021/12/01 06:26:58;;;;;;;11.30;7.20;;;2.00;1.00;;;;;;5033760;28;20045;-87
2021/12/01 06:29:23;;;;;;;10.10;6.80;;;2.00;1.00;;;;;;5033497;28;20028;-87
2021/12/01 06:31:49;;;;;;;10.45;6.32;;;2.10;1.00;;;;;;5029702;28;20112;-87
2021/12/01 06:34:15;;;;;;;9.70;6.72;;;2.10;1.00;;;;;;5036445;28;20029;-87
2021/12/01 06:36:40;;;;;;;10.25;7.13;;;2.10;1.00;;;;;;5036757;28;20497;-86
2021/12/01 06:39:07;;;;;;;10.35;7.43;;;2.10;1.00;;;;;;5037258;28;20485;-86
2021/12/01 06:41:33;;;;;;;12.18;7.72;;;2.20;1.00;;;;;;5037470;28;20036;-87
2021/12/01 06:44:00;;;;;;;11.23;7.57;;;2.20;1.00;;;;;;5032114;28;20030;-86
2021/12/01 06:46:26;;;;;;;9.55;6.82;;;2.30;1.00;;;;;;5037776;28;20425;-86
2021/12/01 06:48:51;;;;;;;9.43;6.60;;;2.30;1.00;;;;;;5036293;28;20025;-87
2021/12/01 06:51:18;;;;;;;9.55;6.70;;;2.30;1.00;;;;;;5036255;28;20030;-86
2021/12/01 06:53:43;;;;;;;10.32;7.18;;;2.30;1.00;;;;;;5037206;28;20021;-86
2021/12/01 06:56:09;;;;;;;10.82;7.20;;;2.30;1.00;;;;;;5034139;28;20480;-86
2021/12/01 06:58:36;;;;;;;8.50;5.53;;;2.30;1.00;;;;;;5035598;28;20104;-86
2021/12/01 07:01:04;;;;;;;7.75;5.70;;;2.30;1.00;;;;;;5038303;28;20041;-87
2021/12/01 07:03:31;;;;;;;8.52;5.38;;;2.30;1.00;;;;;;5035552;28;20486;-87
2021/12/01 07:05:56;;;;;;;8.05;5.28;;;2.70;1.00;;;;;;5036110;28;20022;-87
2021/12/01 07:08:22;;;;;;;7.40;4.90;;;2.30;1.00;;;;;;5036027;28;20370;-87
2021/12/01 07:10:48;;;;;;;5.68;4.43;;;2.40;1.00;;;;;;5032689;28;20028;-86
2021/12/01 07:13:14;;;;;;;7.32;4.90;;;2.50;1.00;;;;;;5038603;28;20026;-87
2021/12/01 07:15:39;;;;;;;6.75;4.72;;;2.70;1.00;;;;;;5036325;28;20021;-87
2021/12/01 07:18:05;;;;;;;5.07;4.03;;;2.80;1.00;;;;;;5036363;28;20039;-87
2021/12/01 07:20:31;;;;;;;7.72;4.72;;;2.90;1.00;;;;;;5036161;28;20091;-87
2021/12/01 07:22:56;;;;;;;6.70;4.25;;;3.20;1.00;;;;;;5032393;28;20080;-86
2021/12/01 07:25:22;;;;;;;6.03;3.90;;;3.20;1.00;;;;;;5038500;28;20028;-86
2021/12/01 07:27:48;;;;;;;5.43;3.40;;;3.30;1.00;;;;;;5036145;28;20049;-87
2021/12/01 07:30:13;;;;;;;4.78;3.72;;;3.30;1.00;;;;;;5035873;28;20033;-87
2021/12/01 07:32:39;;;;;;;4.97;3.70;;;3.20;1.00;;;;;;5036579;28;20535;-87
2021/12/01 07:35:05;;;;;;;7.32;4.60;;;3.30;1.00;;;;;;5033126;28;20530;-87
2021/12/01 07:37:31;;;;;;;4.72;3.42;;;3.40;1.00;;;;;;5035762;28;20056;-87
2021/12/01 07:39:56;;;;;;;5.38;3.70;;;3.60;1.00;;;;;;5037533;28;20049;-87
2021/12/01 07:42:22;;;;;;;5.10;3.20;;;6.60;1.00;;;;;;5034435;28;20064;-87
2021/12/01 07:44:48;;;;;;;7.32;3.22;;;8.10;1.00;;;;;;5036374;28;20030;-88
2021/12/01 07:47:14;;;;;;;7.05;3.63;;;9.30;1.00;;;;;;5034415;28;20037;-87
2021/12/01 07:49:40;;;;;;;5.55;3.55;;;10.00;1.00;;;;;;5032700;28;20030;-89
2021/12/01 07:52:06;;;;;;;5.50;3.42;;;9.50;1.00;;;;;;5037697;28;20041;-87
2021/12/01 07:54:32;;;;;;;4.78;3.28;;;7.60;1.00;;;;;;5035794;28;20033;-87
2021/12/01 07:56:58;;;;;;;5.18;3.05;;;6.60;1.00;;;;;;5035728;28;20090;-87
2021/12/01 07:59:24;;;;;;;3.70;2.28;;;6.00;1.00;;;;;;5035290;28;20029;-87
2021/12/01 08:01:50;;;;;;;3.05;2.15;;;5.80;1.00;;;;;;5031729;28;20036;-87
2021/12/01 08:04:16;;;;;;;2.25;2.05;;;5.80;1.00;;;;;;5037791;28;20436;-87
2021/12/01 08:06:43;;;;;;;3.60;2.35;;;5.70;1.00;;;;;;5035440;28;20029;-87
2021/12/01 08:09:09;;;;;;;5.75;3.30;;;5.60;1.00;;;;;;5035971;28;20397;-87
2021/12/01 08:11:35;;;;;;;6.40;3.45;;;5.30;1.00;;;;;;5035475;28;20440;-86
2021/12/01 08:14:01;;;;;;;7.18;3.83;;;5.00;1.00;;;;;;5031675;28;20025;-86
2021/12/01 08:16:26;;;;;;;5.35;3.45;;;5.00;1.00;;;;;;5036187;28;20025;-86
2021/12/01 08:18:53;;;;;;;6.35;3.85;;;5.30;1.00;;;;;;5034006;28;20509;-87
2021/12/01 08:21:20;;;;;;;7.15;4.30;;;5.20;1.00;;;;;;5033893;28;20034;-86
2021/12/01 08:23:46;;;;;;;5.40;3.83;;;5.30;1.00;;;;;;5035592;28;20449;-86
2021/12/01 08:26:12;;;;;;;5.55;3.70;;;5.40;1.00;;;;;;5033182;28;20069;-87
2021/12/01 08:28:37;;;;;;;5.78;3.22;;;5.90;1.00;;;;;;5033050;28;20029;-87
2021/12/01 08:31:03;;;;;;;3.88;2.38;;;6.30;1.00;;;;;;5037229;28;20037;-87
2021/12/01 08:33:29;;;;;;;3.33;2.10;;;6.70;1.00;;;;;;5034643;28;20132;-86
2021/12/01 08:35:55;;;;;;;3.50;2.55;;;9.30;1.00;;;;;;5033810;28;20063;-87
2021/12/01 08:38:20;;;;;;;6.15;3.08;;;12.40;1.00;;;;;;5034193;28;20055;-87
2021/12/01 08:40:46;;;;;;;4.95;2.70;;;11.80;1.00;;;;;;5031724;28;20033;-87
2021/12/01 08:43:12;;;;;;;3.45;2.55;;;10.40;1.00;;;;;;5036746;28;20503;-87
2021/12/01 08:45:38;;;;;;;3.40;2.50;;;9.70;1.00;;;;;;5034705;28;20117;-86
2021/12/01 08:48:05;;;;;;;4.22;2.63;;;9.80;1.00;;;;;;5034645;28;20037;-87
2021/12/01 08:50:32;;;;;;;9.07;5.68;;;9.00;1.00;;;;;;5035020;28;20032;-87
2021/12/01 08:52:58;;;;;;;9.88;6.13;;;8.80;1.00;;;;;;5030931;28;20429;-86
2021/12/01 08:55:24;;;;;;;9.05;6.65;;;9.10;1.00;;;;;;5036105;28;20442;-87
2021/12/01 08:57:51;;;;;;;13.25;7.93;;;10.60;1.00;;;;;;5034429;28;20116;-87
2021/12/01 09:00:19;;;;;;;13.25;8.90;;;10.60;1.00;;;;;;5033461;28;20029;-87
2021/12/01 09:02:45;;;;;;;16.15;8.88;;;9.60;1.00;;;;;;5034125;28;20116;-87
2021/12/01 09:05:10;;;;;;;17.30;10.40;;;8.70;1.00;;;;;;5032476;28;20104;-86
2021/12/01 09:07:36;;;;;;;20.33;10.85;;;8.30;1.00;;;;;;5032881;28;20422;-87
2021/12/01 09:10:04;;;;;;;16.65;10.68;;;7.60;1.00;;;;;;5036459;28;20405;-87
2021/12/01 09:12:29;;;;;;;17.25;10.77;;;7.30;1.00;;;;;;5034220;28;20441;-86
2021/12/01 09:14:57;;;;;;;17.35;11.00;;;7.10;1.00;;;;;;5034353;28;20091;-87
2021/12/01 09:17:23;;;;;;;20.40;11.32;;;7.30;1.00;;;;;;5033498;28;20053;-87
2021/12/01 09:19:50;;;;;;;31.88;18.70;;;7.00;1.00;;;;;;5030636;28;20486;-87
2021/12/01 09:22:17;;;;;;;23.13;14.20;;;6.90;1.00;;;;;;5036325;28;20409;-87
2021/12/01 09:24:43;;;;;;;21.10;12.93;;;7.20;1.00;;;;;;5033836;28;20033;-87
2021/12/01 09:27:10;;;;;;;18.73;13.70;;;7.10;1.00;;;;;;5034497;28;20394;-87
2021/12/01 09:29:35;;;;;;;18.23;11.65;;;7.70;1.00;;;;;;5034320;28;20135;-87
2021/12/01 09:32:02;;;;;;;23.08;16.15;;;7.70;1.00;;;;;;5030611;28;20410;-87
2021/12/01 09:34:28;;;;;;;19.42;13.82;;;7.00;1.00;;;;;;5033353;28;20116;-87
2021/12/01 09:36:54;;;;;;;19.70;13.80;;;6.90;1.00;;;;;;5035066;28;20164;-87
2021/12/01 09:39:20;;;;;;;14.93;11.98;;;7.30;1.00;;;;;;5032903;28;20040;-87
2021/12/01 09:41:47;;;;;;;22.65;13.05;;;7.00;1.00;;;;;;5033849;28;20477;-87
2021/12/01 09:44:13;;;;;;;20.27;12.75;;;6.80;1.00;;;;;;5032213;28;20040;-87
2021/12/01 09:46:38;;;;;;;17.58;11.55;;;6.30;1.00;;;;;;5031906;28;20021;-86
2021/12/01 09:49:04;;;;;;;19.15;12.75;;;6.30;1.00;;;;;;5035930;28;20038;-86
2021/12/01 09:51:30;;;;;;;20.35;13.25;;;6.80;1.00;;;;;;5034038;28;20030;-86
2021/12/01 09:53:57;;;;;;;20.40;13.10;;;6.40;1.00;;;;;;5034300;28;20117;-86
2021/12/01 09:56:24;;;;;;;16.85;12.60;;;6.60;1.00;;;;;;5033677;28;20017;-86
2021/12/01 09:58:50;;;;;;;19.33;13.32;;;6.70;1.00;;;;;;5029955;28;20099;-86
2021/12/01 10:01:19;;;;;;;15.52;10.93;;;7.50;1.00;;;;;;5035626;28;20474;-87
2021/12/01 10:03:45;;;;;;;13.95;10.25;;;7.10;1.00;;;;;;5034377;28;20118;-86
2021/12/01 10:06:17;;;;;;;12.57;9.00;;;6.80;1.00;;;;;;5033741;28;20064;-87
2021/12/01 10:08:57;;;;;;;10.68;8.50;;;6.90;1.00;;;;;;5034422;28;20055;-87
2021/12/01 10:11:29;;;;;;;14.07;8.23;;;7.10;1.00;;;;;;5037202;28;20393;-86
2021/12/01 10:14:04;;;;;;;11.55;8.07;;;7.00;1.00;;;;;;5016196;28;20025;-87
2021/12/01 10:16:34;;;;;;;12.82;9.32;;;7.00;1.00;;;;;;5048063;28;20380;-86
2021/12/01 10:19:04;;;;;;;12.18;7.80;;;6.80;1.00;;;;;;5039118;28;20029;-86
2021/12/01 10:21:35;;;;;;;10.05;6.00;;;6.70;1.00;;;;;;5037473;28;20045;-86
2021/12/01 10:24:12;;;;;;;9.60;6.40;;;7.30;1.00;;;;;;5037489;28;20017;-86
2021/12/01 10:26:59;;;;;;;6.72;3.08;;;7.00;1.00;;;;;;5037178;28;20052;-86
2021/12/01 10:29:50;;;;;;;7.50;3.53;;;7.50;1.00;;;;;;5036775;28;20029;-86
2021/12/01 10:32:18;;;;;;;1.52;1.17;;;7.10;1.00;;;;;;5023324;28;20072;-86
2021/12/01 10:34:53;;;;;;;1.75;1.20;;;7.50;1.00;;;;;;5034179;28;20033;-87
2021/12/01 10:37:23;;;;;;;1.65;1.05;;;7.60;1.00;;;;;;5039504;28;20028;-86
2021/12/01 10:40:09;;;;;;;1.83;1.33;;;7.70;1.00;;;;;;5037247;28;20120;-86
2021/12/01 10:42:52;;;;;;;1.10;0.80;;;7.90;1.00;;;;;;5037090;28;20033;-86
2021/12/01 10:45:20;;;;;;;1.42;1.17;;;7.80;1.00;;;;;;5037200;28;20108;-86
2021/12/01 10:47:47;;;;;;;1.85;0.90;;;8.00;1.00;;;;;;5037040;28;20040;-86
2021/12/01 10:50:19;;;;;;;1.58;1.02;;;8.00;1.00;;;;;;5035064;28;20152;-86
2021/12/01 10:52:49;;;;;;;1.55;1.20;;;8.20;1.00;;;;;;5033839;28;20167;-86
2021/12/01 10:55:24;;;;;;;1.33;1.00;;;8.20;1.00;;;;;;5039135;28;20478;-86
2021/12/01 10:57:57;;;;;;;2.22;1.00;;;8.20;1.00;;;;;;5035392;28;20025;-86
2021/12/01 11:00:32;;;;;;;0.98;0.70;;;8.50;1.00;;;;;;5036697;28;20025;-86
2021/12/01 11:03:20;;;;;;;1.45;0.90;;;8.30;1.00;;;;;;5037201;28;20033;-86
2021/12/01 11:05:48;;;;;;;1.65;1.00;;;8.20;1.00;;;;;;5036696;28;20495;-86
2021/12/01 11:08:31;;;;;;;1.25;0.90;;;8.10;1.00;;;;;;5034641;28;20037;-87
2021/12/01 11:11:08;;;;;;;1.55;1.30;;;8.10;1.00;;;;;;5017646;28;20037;-86
2021/12/01 11:13:36;;;;;;;1.30;1.00;;;8.20;1.00;;;;;;5035131;28;20025;-86
2021/12/01 11:16:04;;;;;;;1.50;0.90;;;7.80;1.00;;;;;;5038114;28;20036;-86
2021/12/01 11:18:35;;;;;;;1.13;1.02;;;7.70;1.00;;;;;;5036969;28;20025;-86
2021/12/01 11:21:12;;;;;;;2.63;1.30;;;8.10;1.00;;;;;;5035991;28;20120;-86
2021/12/01 11:23:47;;;;;;;2.25;1.30;;;7.80;1.00;;;;;;5036182;28;20067;-86
2021/12/01 11:26:21;;;;;;;2.00;1.30;;;7.80;1.00;;;;;;5034201;28;20060;-86
2021/12/01 11:28:54;;;;;;;2.00;1.33;;;7.80;1.00;;;;;;5032797;28;20049;-85
2021/12/01 11:31:23;;;;;;;3.35;1.48;;;7.60;1.00;;;;;;5038129;28;20135;-84
2021/12/01 11:33:52;;;;;;;2.90;1.55;;;7.70;1.00;;;;;;5036550;28;20399;-84
2021/12/01 11:36:21;;;;;;;2.80;1.60;;;7.70;1.00;;;;;;5034743;28;20067;-84
2021/12/01 11:38:52;;;;;;;1.60;1.20;;;7.50;1.00;;;;;;5036225;28;20103;-84
2021/12/01 11:41:19;;;;;;;0.70;0.70;;;7.70;1.00;;;;;;5034498;28;20036;-86
2021/12/01 11:43:45;;;;;;;1.88;1.35;;;7.40;99.90;;;;;;5033046;28;20464;-86
2021/12/01 11:46:11;;;;;;;2.00;1.17;;;7.30;99.40;;;;;;5038564;28;20033;-86
2021/12/01 11:48:52;;;;;;;2.67;1.10;;;6.80;1.00;;;;;;5035839;28;20037;-86
2021/12/01 11:51:36;;;;;;;1.35;0.80;;;6.50;99.90;;;;;;5035894;28;20021;-86
2021/12/01 11:54:11;;;;;;;1.83;1.02;;;6.30;99.90;;;;;;5036171;28;20515;-85
2021/12/01 11:56:46;;;;;;;3.17;1.35;;;5.90;99.90;;;;;;5045488;28;20056;-86
2021/12/01 11:59:15;;;;;;;1.27;0.98;;;5.70;99.90;;;;;;5033790;28;20481;-85
2021/12/01 12:01:45;;;;;;;2.40;0.88;;;5.70;99.90;;;;;;5032979;28;20486;-83
2021/12/01 12:04:15;;;;;;;2.17;1.10;;;6.00;99.90;;;;;;5038098;28;20489;-84
2021/12/01 12:07:08;;;;;;;1.95;1.40;;;5.60;99.90;;;;;;5035443;28;20036;-84
2021/12/01 12:09:35;;;;;;;3.10;1.40;;;5.70;99.90;;;;;;5037026;28;20092;-84
2021/12/01 12:12:00;;;;;;;2.13;1.63;;;5.90;99.90;;;;;;5035107;28;20029;-86
2021/12/01 12:14:28;;;;;;;1.30;1.10;;;6.10;99.90;;;;;;5033933;28;20036;-84
2021/12/01 12:17:05;;;;;;;2.35;1.83;;;6.40;99.90;;;;;;5015510;28;20065;-85
2021/12/01 12:19:43;;;;;;;1.73;1.30;;;6.20;99.90;;;;;;5045433;28;20109;-84
2021/12/01 12:22:09;;;;;;;1.90;1.60;;;6.00;1.00;;;;;;5037171;28;20032;-84
2021/12/01 12:24:44;;;;;;;2.17;1.52;;;5.90;99.90;;;;;;5034981;28;20124;-84
2021/12/01 12:27:41;;;;;;;2.20;1.80;;;5.80;99.90;;;;;;5035050;28;20468;-84
2021/12/01 12:30:09;;;;;;;2.40;1.75;;;5.80;99.90;;;;;;5035206;28;20084;-84
2021/12/01 12:32:35;;;;;;;3.30;1.75;;;5.60;99.90;;;;;;5034905;28;20079;-85
2021/12/01 12:35:06;;;;;;;2.63;1.70;;;5.50;99.90;;;;;;5031492;28;20033;-84
2021/12/01 12:37:33;;;;;;;2.67;2.25;;;5.30;99.90;;;;;;5034747;28;20026;-85
2021/12/01 12:40:02;;;;;;;5.63;2.17;;;5.30;99.90;;;;;;5035775;28;20025;-85
2021/12/01 12:42:28;;;;;;;3.17;1.80;;;5.80;99.90;;;;;;5034851;28;20101;-85
2021/12/01 12:44:56;;;;;;;4.10;2.35;;;5.70;99.90;;;;;;5034945;28;20029;-85
2021/12/01 12:47:39;;;;;;;3.95;1.80;;;5.90;99.90;;;;;;5034255;28;20041;-85
2021/12/01 12:50:15;;;;;;;1.30;1.20;;;5.40;99.90;;;;;;5017905;28;20030;-85
2021/12/01 12:52:53;;;;;;;2.13;1.77;;;5.40;99.90;;;;;;5032638;28;20021;-85
2021/12/01 12:55:22;;;;;;;3.42;1.88;;;5.70;99.90;;;;;;5036098;28;20041;-85
2021/12/01 12:57:59;;;;;;;2.25;1.80;;;5.80;99.90;;;;;;5034497;28;20030;-86
2021/12/01 13:00:29;;;;;;;3.72;2.03;;;5.80;99.90;;;;;;5034712;28;20034;-86
2021/12/01 13:02:57;;;;;;;2.20;1.58;;;5.90;99.90;;;;;;5033155;28;20508;-87
2021/12/01 13:05:30;;;;;;;2.17;1.63;;;5.80;99.90;;;;;;5034508;28;20025;-86